Time;durP1;ratioP1;P1;durP2;ratioP2;P2;SDS_P1;SDS_P2;PMS_P1;PMS_P2;Temp;Humidity;BMP_temperature;BMP_pressure;BME280_temperature;BME280_humidity;BME280_pressure;Samples;Min_cycle;Max_cycle;Signal;HPM_P1;HPM_P2
2022/08/16 00:01:21;;;;;;;15.45;13.90;;;20.60;99.90;;;;;;5057027;28;20060;-66
2022/08/16 00:03:47;;;;;;;15.07;13.77;;;20.50;99.90;;;;;;5065139;28;20094;-66
2022/08/16 00:06:12;;;;;;;15.45;13.98;;;20.50;99.90;;;;;;5037963;28;20045;-66
2022/08/16 00:08:38;;;;;;;15.77;14.27;;;20.60;99.90;;;;;;5058223;28;20040;-66
2022/08/16 00:11:10;;;;;;;16.30;14.70;;;20.50;99.90;;;;;;5058255;28;20040;-66
2022/08/16 00:13:36;;;;;;;16.83;15.05;;;20.50;99.90;;;;;;5060412;28;20140;-66
2022/08/16 00:16:02;;;;;;;17.67;16.17;;;20.50;99.90;;;;;;5059439;28;20098;-66
2022/08/16 00:18:28;;;;;;;18.42;16.63;;;20.50;99.90;;;;;;5062368;28;20086;-66
2022/08/16 00:20:54;;;;;;;20.48;18.60;;;20.50;99.90;;;;;;5060865;28;20048;-66
2022/08/16 00:23:19;;;;;;;20.83;19.00;;;20.40;99.90;;;;;;5041979;28;20032;-66
2022/08/16 00:25:45;;;;;;;19.42;17.58;;;20.40;99.90;;;;;;5057606;28;20092;-66
2022/08/16 00:28:11;;;;;;;21.65;19.58;;;20.30;99.90;;;;;;5039329;28;20170;-66
2022/08/16 00:30:37;;;;;;;22.85;20.58;;;20.40;99.90;;;;;;5058068;28;20037;-67
2022/08/16 00:33:03;;;;;;;20.90;19.00;;;20.40;99.90;;;;;;5058928;28;20045;-66
2022/08/16 00:35:32;;;;;;;22.25;20.45;;;20.30;99.90;;;;;;5064908;28;20037;-66
2022/08/16 00:38:01;;;;;;;21.02;19.13;;;20.40;99.90;;;;;;5060435;28;20037;-66
2022/08/16 00:40:43;;;;;;;21.50;19.60;;;20.40;99.90;;;;;;5064624;28;20546;-67
2022/08/16 00:43:15;;;;;;;21.02;19.23;;;20.40;99.90;;;;;;5063610;28;20044;-66
2022/08/16 00:46:08;;;;;;;22.40;20.30;;;20.40;99.90;;;;;;5045957;28;20057;-67
2022/08/16 00:48:34;;;;;;;22.65;20.45;;;20.40;99.90;;;;;;5059315;28;20059;-67
2022/08/16 00:51:02;;;;;;;22.17;20.17;;;20.40;99.90;;;;;;5066279;28;20476;-66
2022/08/16 00:53:28;;;;;;;22.25;20.05;;;20.40;99.90;;;;;;5068861;28;20041;-66
2022/08/16 00:55:56;;;;;;;22.90;20.90;;;20.40;99.90;;;;;;5060258;28;20049;-66
2022/08/16 00:58:25;;;;;;;22.83;20.63;;;20.40;99.90;;;;;;5064812;28;20036;-66
2022/08/16 01:00:51;;;;;;;23.23;21.05;;;20.40;99.90;;;;;;5061253;28;20025;-66
2022/08/16 01:03:19;;;;;;;23.63;21.45;;;20.30;99.90;;;;;;5044208;28;20040;-66
2022/08/16 01:05:46;;;;;;;23.55;21.52;;;20.40;99.90;;;;;;5065328;28;20114;-67
2022/08/16 01:08:15;;;;;;;24.95;22.50;;;20.30;99.90;;;;;;5065130;28;20040;-67
2022/08/16 01:10:41;;;;;;;24.60;22.30;;;20.30;99.90;;;;;;5061635;28;20029;-67
2022/08/16 01:13:15;;;;;;;25.23;22.83;;;20.30;99.90;;;;;;5041668;28;20052;-67
2022/08/16 01:15:47;;;;;;;;;;;20.30;99.90;;;;;;5039730;28;20108;-67
2022/08/16 01:18:18;;;;;;;25.02;22.63;;;20.20;99.90;;;;;;5057024;28;20345;-67
2022/08/16 01:20:52;;;;;;;24.00;21.95;;;20.20;99.90;;;;;;5050724;28;20064;-67
2022/08/16 01:23:35;;;;;;;25.08;22.60;;;20.20;99.90;;;;;;5060736;28;20055;-67
2022/08/16 01:26:01;;;;;;;26.58;24.08;;;20.20;99.90;;;;;;5059580;28;20064;-67
2022/08/16 01:28:28;;;;;;;25.83;23.45;;;20.20;99.90;;;;;;5062408;28;20044;-67
2022/08/16 01:30:56;;;;;;;27.58;25.00;;;20.20;99.90;;;;;;5064563;28;20427;-67
2022/08/16 01:33:23;;;;;;;28.15;25.63;;;20.10;99.90;;;;;;5061577;28;20032;-67
2022/08/16 01:36:07;;;;;;;26.48;24.20;;;20.10;99.90;;;;;;5065862;28;20064;-67
2022/08/16 01:38:35;;;;;;;27.77;25.27;;;20.10;99.90;;;;;;5063686;28;20052;-67
2022/08/16 01:41:10;;;;;;;26.77;24.48;;;20.10;99.90;;;;;;5065846;28;20037;-67
2022/08/16 01:43:38;;;;;;;28.17;25.38;;;20.00;99.90;;;;;;5069511;28;20029;-67
2022/08/16 01:46:06;;;;;;;27.25;24.50;;;20.00;99.90;;;;;;5062804;28;20435;-67
2022/08/16 01:48:33;;;;;;;28.02;25.42;;;20.00;99.90;;;;;;5062875;28;20040;-66
2022/08/16 01:51:01;;;;;;;27.42;24.95;;;19.90;99.90;;;;;;5061003;28;20547;-67
2022/08/16 01:53:28;;;;;;;25.70;23.42;;;19.90;99.90;;;;;;5064077;28;20344;-66
2022/08/16 01:55:55;;;;;;;26.95;24.45;;;19.90;99.90;;;;;;5059607;28;20079;-67
2022/08/16 01:58:22;;;;;;;25.35;23.13;;;19.90;99.90;;;;;;5059952;28;20431;-66
2022/08/16 02:00:49;;;;;;;25.25;23.05;;;19.90;99.90;;;;;;5060481;28;20055;-67
2022/08/16 02:03:15;;;;;;;27.23;24.75;;;19.80;99.90;;;;;;5058900;28;20040;-67
2022/08/16 02:05:41;;;;;;;27.65;25.15;;;19.90;99.90;;;;;;5056311;28;20143;-66
2022/08/16 02:08:07;;;;;;;27.10;24.60;;;19.80;99.90;;;;;;5058407;28;20080;-66
2022/08/16 02:10:35;;;;;;;29.65;26.90;;;19.80;99.90;;;;;;5061117;28;20103;-66
2022/08/16 02:13:04;;;;;;;25.08;22.88;;;19.80;99.90;;;;;;5059264;28;20028;-66
2022/08/16 02:15:32;;;;;;;25.80;23.60;;;19.80;99.90;;;;;;5063970;28;20036;-66
2022/08/16 02:17:59;;;;;;;26.45;24.08;;;19.70;99.90;;;;;;5063482;28;20118;-66
2022/08/16 02:20:28;;;;;;;26.13;23.83;;;19.70;99.90;;;;;;5042224;28;20057;-66
2022/08/16 02:22:58;;;;;;;27.38;24.85;;;19.70;99.90;;;;;;5062454;28;20115;-66
2022/08/16 02:25:26;;;;;;;25.63;23.52;;;19.60;99.90;;;;;;5061306;28;20480;-66
2022/08/16 02:27:52;;;;;;;25.67;23.02;;;19.60;99.90;;;;;;5061081;28;20397;-66
2022/08/16 02:30:26;;;;;;;25.73;23.50;;;19.60;99.90;;;;;;5056775;28;20480;-66
2022/08/16 02:32:52;;;;;;;24.98;22.92;;;19.50;99.90;;;;;;5061356;28;20033;-66
2022/08/16 02:35:18;;;;;;;26.92;24.63;;;19.50;99.90;;;;;;5059280;28;20056;-66
2022/08/16 02:37:44;;;;;;;27.13;24.60;;;19.50;99.90;;;;;;5061651;28;20114;-66
2022/08/16 02:40:12;;;;;;;26.10;23.83;;;19.40;99.90;;;;;;5062027;28;20234;-66
2022/08/16 02:42:37;;;;;;;26.73;24.23;;;19.40;99.90;;;;;;5063756;28;20120;-66
2022/08/16 02:45:04;;;;;;;25.42;23.15;;;19.40;99.90;;;;;;5066377;28;20392;-66
2022/08/16 02:47:30;;;;;;;23.70;21.63;;;19.30;99.90;;;;;;5061731;28;20365;-67
2022/08/16 02:49:55;;;;;;;23.58;21.55;;;19.30;99.90;;;;;;5060292;28;20041;-66
2022/08/16 02:52:22;;;;;;;24.45;22.27;;;19.20;99.90;;;;;;5056275;28;20044;-66
2022/08/16 02:54:48;;;;;;;25.40;23.10;;;19.20;99.90;;;;;;5054736;28;20123;-66
2022/08/16 02:57:14;;;;;;;24.33;22.13;;;19.20;99.90;;;;;;5039936;28;20098;-66
2022/08/16 02:59:41;;;;;;;25.00;22.65;;;19.10;99.90;;;;;;5045239;28;20116;-66
2022/08/16 03:02:09;;;;;;;23.17;21.08;;;19.10;99.90;;;;;;5045090;28;20060;-66
2022/08/16 03:04:35;;;;;;;23.17;20.90;;;19.00;99.90;;;;;;5064225;28;20044;-66
2022/08/16 03:07:01;;;;;;;24.98;22.58;;;19.00;99.90;;;;;;5062156;28;20037;-66
2022/08/16 03:09:27;;;;;;;23.73;21.63;;;19.00;99.90;;;;;;5063221;28;20036;-66
2022/08/16 03:11:53;;;;;;;22.98;20.88;;;18.90;99.90;;;;;;5059448;28;20106;-66
2022/08/16 03:14:18;;;;;;;23.38;21.27;;;18.90;99.90;;;;;;5059082;28;20144;-66
2022/08/16 03:16:44;;;;;;;24.50;22.20;;;18.90;99.90;;;;;;5056529;28;20033;-66
2022/08/16 03:19:10;;;;;;;25.95;23.58;;;18.80;99.90;;;;;;5058650;28;20051;-66
2022/08/16 03:21:36;;;;;;;26.17;23.77;;;18.80;99.90;;;;;;5057368;28;20450;-66
2022/08/16 03:24:02;;;;;;;24.30;21.88;;;18.70;99.90;;;;;;5043574;28;20045;-67
2022/08/16 03:26:28;;;;;;;27.67;24.60;;;18.70;99.90;;;;;;5038050;28;20117;-66
2022/08/16 03:28:54;;;;;;;25.02;22.80;;;18.70;99.90;;;;;;5059941;28;20499;-66
2022/08/16 03:31:20;;;;;;;23.80;21.67;;;18.70;99.90;;;;;;5044636;28;20045;-66
2022/08/16 03:33:46;;;;;;;27.13;24.58;;;18.60;99.90;;;;;;5041816;28;20037;-66
2022/08/16 03:36:11;;;;;;;28.75;26.05;;;18.50;99.90;;;;;;5060921;28;20040;-66
2022/08/16 03:38:37;;;;;;;26.50;23.90;;;18.50;99.90;;;;;;5059615;28;20072;-66
2022/08/16 03:41:05;;;;;;;26.33;23.92;;;18.40;99.90;;;;;;5059291;28;20397;-67
2022/08/16 03:43:31;;;;;;;27.15;24.77;;;18.40;99.90;;;;;;5062576;28;20158;-66
2022/08/16 03:45:58;;;;;;;25.25;23.05;;;18.30;99.90;;;;;;5056450;28;20259;-66
2022/08/16 03:48:27;;;;;;;28.65;25.95;;;18.30;99.90;;;;;;5065733;28;20037;-66
2022/08/16 03:50:53;;;;;;;27.30;24.70;;;18.30;99.90;;;;;;5060244;28;20051;-66
2022/08/16 03:53:19;;;;;;;25.42;23.13;;;18.20;99.90;;;;;;5060777;28;20407;-66
2022/08/16 03:55:45;;;;;;;27.65;24.95;;;18.20;99.90;;;;;;5057228;28;20057;-66
2022/08/16 03:58:11;;;;;;;27.33;24.65;;;18.20;99.90;;;;;;5058151;28;20051;-66
2022/08/16 04:00:38;;;;;;;23.35;21.25;;;18.10;99.90;;;;;;5057476;28;20049;-66
2022/08/16 04:03:08;;;;;;;24.58;22.38;;;18.10;99.90;;;;;;5057179;28;20087;-66
2022/08/16 04:05:36;;;;;;;24.92;21.77;;;18.10;99.90;;;;;;5058857;28;20036;-66
2022/08/16 04:08:03;;;;;;;25.15;22.63;;;18.00;99.90;;;;;;5061145;28;20040;-66
2022/08/16 04:10:29;;;;;;;25.50;23.25;;;18.00;99.90;;;;;;5063562;28;20752;-66
2022/08/16 04:12:57;;;;;;;26.50;24.00;;;18.00;99.90;;;;;;5067595;28;20055;-66
2022/08/16 04:15:24;;;;;;;24.52;22.35;;;18.00;99.90;;;;;;5066503;28;20041;-66
2022/08/16 04:17:51;;;;;;;25.20;23.13;;;17.90;99.90;;;;;;5065331;28;20040;-66
2022/08/16 04:20:17;;;;;;;26.45;23.80;;;18.00;99.90;;;;;;5066669;28;20043;-66
2022/08/16 04:22:43;;;;;;;26.13;23.60;;;17.90;99.90;;;;;;5063841;28;20044;-66
2022/08/16 04:25:10;;;;;;;27.33;24.50;;;17.90;99.90;;;;;;5064314;28;20392;-66
2022/08/16 04:27:36;;;;;;;28.88;26.02;;;17.90;99.90;;;;;;5058214;28;20044;-66
2022/08/16 04:30:07;;;;;;;27.30;24.70;;;17.90;99.90;;;;;;5058374;28;20029;-66
2022/08/16 04:32:33;;;;;;;29.27;26.05;;;17.90;99.90;;;;;;5059359;28;20045;-66
2022/08/16 04:34:59;;;;;;;27.52;25.05;;;17.80;99.90;;;;;;5063310;28;20483;-66
2022/08/16 04:37:24;;;;;;;27.45;24.83;;;17.80;99.90;;;;;;5044572;28;20140;-66
2022/08/16 04:39:50;;;;;;;28.15;25.38;;;17.90;99.90;;;;;;5062484;28;20060;-66
2022/08/16 04:42:17;;;;;;;29.25;26.48;;;17.80;99.90;;;;;;5062265;28;20048;-66
2022/08/16 04:44:44;;;;;;;27.48;24.55;;;17.80;99.90;;;;;;5046061;28;20056;-66
2022/08/16 04:47:09;;;;;;;27.45;24.80;;;17.80;99.90;;;;;;5064376;28;20068;-66
2022/08/16 04:49:35;;;;;;;27.27;24.67;;;17.80;99.90;;;;;;5065989;28;20032;-66
2022/08/16 04:52:01;;;;;;;27.35;24.55;;;17.80;99.90;;;;;;5065366;28;20033;-66
2022/08/16 04:54:27;;;;;;;28.85;26.25;;;17.80;99.90;;;;;;5063807;28;20033;-66
2022/08/16 04:56:52;;;;;;;27.77;25.10;;;17.80;99.90;;;;;;5066206;28;20036;-66
2022/08/16 04:59:18;;;;;;;27.45;24.77;;;17.80;99.90;;;;;;5067142;28;20091;-66
2022/08/16 05:01:43;;;;;;;28.20;25.63;;;17.80;99.90;;;;;;5063054;28;20044;-66
2022/08/16 05:04:09;;;;;;;29.60;26.80;;;17.90;99.90;;;;;;5068608;28;20036;-67
2022/08/16 05:06:35;;;;;;;28.25;25.45;;;17.90;99.90;;;;;;5063899;28;20055;-67
2022/08/16 05:09:01;;;;;;;28.05;25.55;;;18.00;99.90;;;;;;5063107;28;20423;-67
2022/08/16 05:11:28;;;;;;;28.48;25.60;;;18.00;99.90;;;;;;5063347;28;20091;-67
2022/08/16 05:13:53;;;;;;;27.88;25.23;;;18.10;99.90;;;;;;5062953;28;20072;-67
2022/08/16 05:16:26;;;;;;;28.02;25.30;;;18.20;99.90;;;;;;5047082;28;20079;-67
2022/08/16 05:18:53;;;;;;;28.73;25.85;;;18.30;99.90;;;;;;5057264;28;20088;-67
2022/08/16 05:21:20;;;;;;;28.50;25.92;;;18.40;99.90;;;;;;5058170;28;20499;-67
2022/08/16 05:23:47;;;;;;;28.95;26.15;;;18.50;99.90;;;;;;5065168;28;20115;-67
2022/08/16 05:26:13;;;;;;;26.88;24.40;;;18.60;99.90;;;;;;5066998;28;20116;-67
2022/08/16 05:28:38;;;;;;;27.65;25.02;;;18.70;99.90;;;;;;5061378;28;20120;-67
2022/08/16 05:31:04;;;;;;;27.70;25.17;;;18.70;99.90;;;;;;5063748;28;20075;-67
2022/08/16 05:33:30;;;;;;;26.58;24.08;;;18.90;99.90;;;;;;5060560;28;20028;-67
2022/08/16 05:35:55;;;;;;;26.08;23.65;;;19.00;99.90;;;;;;5063429;28;20028;-65
2022/08/16 05:38:26;;;;;;;25.88;23.50;;;19.10;99.90;;;;;;5065962;28;20118;-65
2022/08/16 05:40:54;;;;;;;24.15;21.85;;;19.20;99.90;;;;;;5045987;28;20120;-65
2022/08/16 05:43:20;;;;;;;25.35;23.08;;;19.40;99.90;;;;;;5057139;28;20041;-65
2022/08/16 05:45:45;;;;;;;22.33;20.23;;;19.70;99.90;;;;;;5046770;28;20044;-66
2022/08/16 05:48:12;;;;;;;23.05;20.95;;;20.10;99.90;;;;;;5050458;28;20114;-66
2022/08/16 05:50:38;;;;;;;22.02;19.92;;;20.30;99.90;;;;;;5059243;28;20063;-66
2022/08/16 05:53:05;;;;;;;20.65;18.60;;;20.40;99.90;;;;;;5063359;28;20032;-66
2022/08/16 05:55:31;;;;;;;21.85;19.63;;;20.50;99.90;;;;;;5063045;28;20080;-66
2022/08/16 05:57:56;;;;;;;19.80;18.00;;;20.50;99.90;;;;;;5063118;28;20072;-66
2022/08/16 06:00:22;;;;;;;21.63;19.58;;;20.40;99.90;;;;;;5059379;28;20079;-67
2022/08/16 06:02:48;;;;;;;21.88;19.80;;;20.40;99.90;;;;;;5058126;28;20037;-67
2022/08/16 06:05:14;;;;;;;21.75;19.83;;;20.30;99.90;;;;;;5062606;28;20507;-67
2022/08/16 06:07:40;;;;;;;20.83;18.67;;;20.30;99.90;;;;;;5065073;28;20291;-67
2022/08/16 06:10:06;;;;;;;20.40;18.40;;;20.20;99.90;;;;;;5060431;28;20040;-67
2022/08/16 06:12:32;;;;;;;21.23;19.13;;;20.20;99.90;;;;;;5041654;28;20045;-67
2022/08/16 06:15:05;;;;;;;20.45;18.65;;;20.20;99.90;;;;;;5060870;28;20356;-67
2022/08/16 06:17:31;;;;;;;19.27;17.47;;;20.20;99.90;;;;;;5062753;28;20040;-67
2022/08/16 06:19:57;;;;;;;20.15;18.27;;;20.10;99.90;;;;;;5064215;28;20382;-67
2022/08/16 06:22:22;;;;;;;19.50;17.50;;;20.10;99.90;;;;;;5060906;28;20037;-67
2022/08/16 06:24:49;;;;;;;19.30;17.40;;;20.10;99.90;;;;;;5060753;28;20041;-67
2022/08/16 06:27:15;;;;;;;20.00;18.08;;;20.10;99.90;;;;;;5063557;28;20123;-67
2022/08/16 06:29:43;;;;;;;19.88;17.88;;;20.10;99.90;;;;;;5054798;28;20032;-67
2022/08/16 06:32:10;;;;;;;20.15;18.15;;;20.10;99.90;;;;;;5038952;28;20194;-67
2022/08/16 06:34:36;;;;;;;20.33;18.35;;;20.20;99.90;;;;;;5053320;28;20040;-67
2022/08/16 06:37:02;;;;;;;20.23;18.52;;;20.10;99.90;;;;;;5038251;28;20049;-67
2022/08/16 06:39:29;;;;;;;20.52;18.52;;;20.30;99.90;;;;;;5061596;28;20473;-67
2022/08/16 06:41:55;;;;;;;21.88;19.83;;;20.50;99.90;;;;;;5043032;28;20083;-67
2022/08/16 06:44:20;;;;;;;19.92;18.33;;;20.70;99.90;;;;;;5057051;28;20064;-67
2022/08/16 06:46:46;;;;;;;21.80;19.50;;;20.80;99.90;;;;;;5059544;28;20076;-67
2022/08/16 06:49:12;;;;;;;21.05;19.00;;;21.00;99.90;;;;;;5059645;28;20534;-67
2022/08/16 06:51:40;;;;;;;21.42;19.13;;;21.20;99.90;;;;;;5059213;28;20036;-67
2022/08/16 06:54:06;;;;;;;20.70;18.77;;;21.30;99.90;;;;;;5057863;28;20045;-67
2022/08/16 06:56:33;;;;;;;22.27;20.15;;;21.40;99.90;;;;;;5061831;28;20415;-67
2022/08/16 06:58:59;;;;;;;20.88;19.15;;;21.60;99.90;;;;;;5040622;28;20079;-65
2022/08/16 07:01:26;;;;;;;19.90;18.10;;;21.70;99.90;;;;;;5063472;28;20091;-65
2022/08/16 07:03:52;;;;;;;20.25;18.25;;;21.80;99.90;;;;;;5061446;28;20119;-66
2022/08/16 07:06:19;;;;;;;18.67;16.88;;;22.00;99.90;;;;;;5049551;28;20052;-67
2022/08/16 07:08:45;;;;;;;20.13;18.30;;;22.10;99.90;;;;;;5045522;28;20048;-67
2022/08/16 07:11:13;;;;;;;19.90;17.85;;;22.20;99.90;;;;;;5064655;28;20033;-67
2022/08/16 07:13:39;;;;;;;18.90;17.25;;;22.40;99.90;;;;;;5058302;28;20044;-65
2022/08/16 07:16:13;;;;;;;20.35;18.48;;;22.50;99.90;;;;;;5064232;28;20522;-66
2022/08/16 07:18:41;;;;;;;20.35;18.23;;;22.60;99.90;;;;;;5068024;28;20039;-66
2022/08/16 07:21:08;;;;;;;18.83;16.95;;;22.70;99.90;;;;;;5059627;28;20340;-66
2022/08/16 07:23:36;;;;;;;20.88;18.05;;;22.80;99.90;;;;;;5056713;28;20036;-66
2022/08/16 07:26:04;;;;;;;19.38;17.48;;;23.10;99.90;;;;;;5068942;28;20388;-66
2022/08/16 07:28:40;;;;;;;20.83;18.88;;;23.20;99.90;;;;;;5062432;28;20238;-66
2022/08/16 07:31:05;;;;;;;18.88;17.08;;;23.40;99.90;;;;;;5058763;28;20050;-67
2022/08/16 07:33:34;;;;;;;19.63;17.45;;;23.60;99.90;;;;;;5059705;28;20108;-67
2022/08/16 07:36:00;;;;;;;18.55;16.65;;;23.80;99.90;;;;;;5024256;28;20057;-67
2022/08/16 07:38:26;;;;;;;19.92;17.85;;;24.00;99.90;;;;;;5062049;28;20186;-67
2022/08/16 07:40:56;;;;;;;19.73;16.95;;;24.20;99.90;;;;;;5058958;28;20036;-67
2022/08/16 07:43:23;;;;;;;18.67;16.77;;;24.40;99.90;;;;;;5059784;28;20123;-67
2022/08/16 07:45:49;;;;;;;19.20;17.23;;;24.60;99.90;;;;;;5054758;28;20102;-67
2022/08/16 07:48:16;;;;;;;18.55;16.58;;;24.80;99.90;;;;;;5062450;28;20040;-67
2022/08/16 07:50:43;;;;;;;17.48;15.82;;;25.00;99.90;;;;;;5063408;28;20040;-67
2022/08/16 07:53:09;;;;;;;18.98;17.20;;;25.20;99.90;;;;;;5062908;28;20036;-67
2022/08/16 07:55:35;;;;;;;15.73;14.13;;;25.60;99.90;;;;;;5063503;28;20522;-68
2022/08/16 07:58:02;;;;;;;16.65;15.05;;;26.00;99.90;;;;;;5061603;28;20052;-68
2022/08/16 08:00:28;;;;;;;18.63;17.00;;;26.50;99.90;;;;;;5056700;28;20107;-69
2022/08/16 08:02:54;;;;;;;16.98;15.30;;;27.10;99.90;;;;;;5042779;28;20044;-69
2022/08/16 08:05:22;;;;;;;15.52;14.02;;;27.50;99.90;;;;;;5056818;28;20392;-70
2022/08/16 08:07:48;;;;;;;15.88;14.48;;;27.80;99.80;;;;;;5057920;28;20468;-70
2022/08/16 08:10:14;;;;;;;15.95;14.43;;;28.20;98.60;;;;;;5059240;28;20039;-70
2022/08/16 08:12:42;;;;;;;14.40;13.05;;;28.50;97.30;;;;;;5062012;28;20460;-70
2022/08/16 08:15:10;;;;;;;13.95;12.60;;;28.60;96.80;;;;;;5059606;28;20040;-72
2022/08/16 08:17:38;;;;;;;15.10;13.70;;;28.60;96.20;;;;;;5069962;28;20048;-69
2022/08/16 08:20:06;;;;;;;13.70;12.35;;;28.80;95.50;;;;;;5078182;28;20044;-68
2022/08/16 08:22:32;;;;;;;13.63;12.25;;;29.20;93.80;;;;;;5059994;28;20049;-68
2022/08/16 08:24:58;;;;;;;13.52;12.07;;;29.60;92.80;;;;;;5076403;28;20036;-68
2022/08/16 08:27:25;;;;;;;12.20;10.93;;;29.90;92.20;;;;;;5064960;28;20061;-68
2022/08/16 08:29:51;;;;;;;13.05;11.43;;;30.20;90.70;;;;;;5055478;28;20040;-69
2022/08/16 08:32:54;;;;;;;13.80;10.30;;;30.40;86.30;;;;;;5064633;28;20527;-67
2022/08/16 08:35:20;;;;;;;10.45;8.43;;;30.60;82.30;;;;;;5052331;28;20041;-68
2022/08/16 08:37:46;;;;;;;8.32;7.53;;;30.70;80.50;;;;;;5070403;28;20114;-69
2022/08/16 08:40:12;;;;;;;9.48;8.48;;;30.90;78.90;;;;;;5065851;28;20131;-69
2022/08/16 08:42:39;;;;;;;11.82;8.73;;;31.10;74.30;;;;;;5067490;28;20045;-69
2022/08/16 08:45:26;;;;;;;10.95;9.65;;;31.20;73.50;;;;;;5068806;28;20040;-68
2022/08/16 08:47:55;;;;;;;11.23;9.02;;;31.40;70.40;;;;;;5070328;28;20115;-67
2022/08/16 08:50:21;;;;;;;11.13;10.07;;;31.50;71.50;;;;;;5071780;28;20342;-68
2022/08/16 08:52:47;;;;;;;9.85;8.95;;;31.60;71.10;;;;;;5073135;28;20047;-68
2022/08/16 08:55:14;;;;;;;11.02;8.43;;;31.80;70.00;;;;;;5057529;28;20079;-68
2022/08/16 08:57:45;;;;;;;10.27;8.88;;;31.90;69.60;;;;;;5070983;28;20032;-68
2022/08/16 09:00:13;;;;;;;10.00;9.00;;;32.10;68.70;;;;;;5074337;28;20094;-67
2022/08/16 09:02:40;;;;;;;10.73;9.57;;;32.20;66.50;;;;;;5079647;28;20136;-67
2022/08/16 09:05:06;;;;;;;8.45;7.72;;;32.30;66.20;;;;;;5064073;28;20052;-68
2022/08/16 09:07:31;;;;;;;8.82;8.07;;;32.50;66.20;;;;;;5076354;28;20064;-68
2022/08/16 09:09:57;;;;;;;10.20;8.10;;;32.60;65.00;;;;;;5074648;28;20058;-68
2022/08/16 09:12:23;;;;;;;9.32;8.43;;;32.60;64.10;;;;;;5072015;28;20025;-68
2022/08/16 09:14:49;;;;;;;9.48;7.70;;;32.70;63.50;;;;;;5077414;28;20033;-67
2022/08/16 09:17:14;;;;;;;7.30;6.60;;;32.70;61.10;;;;;;5072033;28;20100;-68
2022/08/16 09:19:40;;;;;;;8.23;6.68;;;32.80;59.70;;;;;;5072266;28;20112;-68
2022/08/16 09:22:10;;;;;;;7.72;6.25;;;32.80;58.70;;;;;;5059876;28;20059;-69
2022/08/16 09:24:35;;;;;;;7.68;5.97;;;32.70;60.30;;;;;;5067387;28;20120;-69
2022/08/16 09:27:01;;;;;;;7.65;5.43;;;32.70;59.00;;;;;;5068942;28;20082;-71
2022/08/16 09:29:27;;;;;;;7.90;5.15;;;32.80;59.30;;;;;;5065349;28;20139;-71
2022/08/16 09:31:55;;;;;;;6.28;4.07;;;33.00;58.60;;;;;;5068616;28;20041;-70
2022/08/16 09:34:21;;;;;;;5.75;4.70;;;33.10;58.80;;;;;;5068759;28;20075;-71
2022/08/16 09:36:47;;;;;;;6.53;5.88;;;33.40;58.40;;;;;;5068440;28;20377;-72
2022/08/16 09:39:14;;;;;;;6.38;5.80;;;33.50;57.30;;;;;;5066200;28;20041;-68
2022/08/16 09:41:40;;;;;;;9.48;5.22;;;33.60;56.30;;;;;;5076474;28;20040;-68
2022/08/16 09:44:06;;;;;;;5.68;5.13;;;33.50;55.90;;;;;;5047254;28;20063;-67
2022/08/16 09:46:33;;;;;;;5.53;4.30;;;33.50;55.80;;;;;;5068098;28;20051;-68
2022/08/16 09:48:59;;;;;;;7.95;4.90;;;33.40;54.00;;;;;;5068582;28;20057;-68
2022/08/16 09:51:27;;;;;;;4.95;4.25;;;33.40;54.10;;;;;;5067042;28;20484;-69
2022/08/16 09:53:54;;;;;;;6.00;4.45;;;33.40;54.20;;;;;;5063805;28;20397;-69
2022/08/16 09:56:30;;;;;;;8.35;3.70;;;33.40;53.70;;;;;;5063083;28;20048;-69
2022/08/16 09:58:57;;;;;;;6.20;3.75;;;33.40;53.60;;;;;;5059149;28;20106;-68
2022/08/16 10:01:23;;;;;;;5.10;2.90;;;33.50;52.60;;;;;;5064143;28;20059;-68
2022/08/16 10:03:50;;;;;;;4.45;2.80;;;33.50;52.20;;;;;;5069261;28;20488;-69
2022/08/16 10:06:17;;;;;;;5.47;3.60;;;33.60;51.40;;;;;;5061721;28;20483;-69
2022/08/16 10:08:44;;;;;;;5.30;2.97;;;33.80;51.20;;;;;;5057901;28;20128;-69
2022/08/16 10:13:54;;;;;;;5.13;2.70;;;33.90;51.30;;;;;;5062582;28;20392;-68
2022/08/16 10:16:20;;;;;;;3.35;2.20;;;34.00;49.30;;;;;;5063624;28;20041;-67
2022/08/16 10:18:46;;;;;;;4.53;2.42;;;34.10;49.10;;;;;;5048906;28;20048;-69
2022/08/16 10:21:14;;;;;;;3.13;2.60;;;34.20;49.60;;;;;;5062525;28;20048;-68
2022/08/16 10:23:41;;;;;;;4.55;2.42;;;34.20;50.50;;;;;;5064167;28;20048;-68
2022/08/16 10:26:07;;;;;;;2.83;1.88;;;34.30;48.50;;;;;;5066129;28;20480;-68
2022/08/16 10:28:33;;;;;;;3.90;1.70;;;34.20;48.20;;;;;;5064406;28;20048;-67
2022/08/16 10:31:03;;;;;;;2.95;1.65;;;34.40;47.90;;;;;;5062299;28;20419;-68
2022/08/16 10:33:30;;;;;;;4.95;1.70;;;34.30;46.50;;;;;;5060024;28;20052;-67
2022/08/16 10:35:56;;;;;;;5.70;1.80;;;34.20;46.10;;;;;;5063821;28;20123;-68
2022/08/16 10:38:22;;;;;;;2.95;1.65;;;34.30;46.70;;;;;;5068246;28;20136;-68
2022/08/16 10:40:48;;;;;;;3.55;1.88;;;34.40;46.30;;;;;;5064252;28;20419;-68
2022/08/16 10:43:13;;;;;;;4.72;1.50;;;34.50;45.80;;;;;;5070186;28;20032;-67
2022/08/16 10:45:40;;;;;;;5.30;1.65;;;34.50;45.00;;;;;;5065765;28;20049;-68
2022/08/16 10:48:09;;;;;;;2.20;1.50;;;34.50;44.30;;;;;;5064092;28;20131;-67
2022/08/16 10:50:35;;;;;;;3.63;1.35;;;34.30;44.60;;;;;;5063303;28;20066;-68
2022/08/16 10:53:05;;;;;;;2.72;1.80;;;34.30;43.50;;;;;;5064388;28;20032;-67
2022/08/16 10:55:35;;;;;;;4.22;1.85;;;34.30;43.70;;;;;;5063722;28;20055;-68
2022/08/16 10:58:06;;;;;;;2.65;1.80;;;34.40;45.00;;;;;;5064155;28;20454;-68
2022/08/16 11:00:33;;;;;;;2.10;1.75;;;34.50;44.60;;;;;;5062932;28;20128;-67
2022/08/16 11:03:02;;;;;;;3.42;1.70;;;34.50;44.50;;;;;;5068725;28;20051;-68
2022/08/16 11:05:30;;;;;;;2.63;1.20;;;34.50;44.60;;;;;;5069037;28;20040;-68
2022/08/16 11:07:57;;;;;;;3.95;1.52;;;34.60;44.20;;;;;;5062911;28;20059;-67
2022/08/16 11:10:31;;;;;;;4.70;1.70;;;34.80;44.10;;;;;;5063982;28;20028;-68
2022/08/16 11:12:57;;;;;;;5.60;1.55;;;35.00;43.70;;;;;;5061825;28;20500;-68
2022/08/16 11:15:24;;;;;;;3.40;1.23;;;35.30;43.90;;;;;;5059149;28;20179;-68
2022/08/16 11:17:52;;;;;;;3.17;1.10;;;35.40;42.40;;;;;;5058400;28;20036;-68
2022/08/16 11:20:19;;;;;;;1.98;1.30;;;35.60;41.30;;;;;;5042725;28;20178;-68
2022/08/16 11:22:46;;;;;;;2.28;1.20;;;35.50;42.20;;;;;;5058976;28;20043;-67
2022/08/16 11:25:15;;;;;;;3.10;1.33;;;35.70;42.60;;;;;;5065990;28;20048;-73
2022/08/16 11:27:41;;;;;;;2.03;1.25;;;35.80;41.20;;;;;;5032442;28;20059;-73
2022/08/16 11:30:09;;;;;;;2.28;1.45;;;35.90;41.10;;;;;;5053975;28;20037;-73
2022/08/16 11:32:36;;;;;;;3.72;1.33;;;36.10;41.30;;;;;;5058068;28;20520;-73
2022/08/16 11:35:06;;;;;;;2.10;1.30;;;36.40;40.20;;;;;;5052729;28;20031;-73
2022/08/16 11:37:33;;;;;;;5.90;1.20;;;36.30;40.10;;;;;;5061340;28;20597;-73
2022/08/16 11:40:01;;;;;;;3.17;1.38;;;36.40;40.00;;;;;;5046368;28;20071;-72
2022/08/16 11:42:26;;;;;;;2.65;1.13;;;36.50;39.60;;;;;;5041566;28;20119;-73
2022/08/16 11:44:52;;;;;;;4.85;1.15;;;36.50;39.00;;;;;;5048195;28;20092;-73
2022/08/16 11:47:18;;;;;;;2.70;1.02;;;36.60;40.00;;;;;;5061437;28;20048;-73
2022/08/16 11:49:44;;;;;;;4.18;1.35;;;36.60;39.50;;;;;;5044002;28;20059;-73
2022/08/16 11:52:10;;;;;;;3.22;1.45;;;36.40;38.60;;;;;;5047450;28;20041;-73
2022/08/16 11:54:35;;;;;;;3.97;1.30;;;36.10;38.80;;;;;;5049382;28;20545;-73
2022/08/16 11:57:02;;;;;;;3.53;1.45;;;35.80;40.20;;;;;;5041955;28;20167;-73
2022/08/16 11:59:28;;;;;;;2.38;1.50;;;35.80;40.30;;;;;;5043778;28;20060;-72
2022/08/16 12:01:55;;;;;;;3.85;1.20;;;35.80;41.20;;;;;;5043525;28;20032;-73
2022/08/16 12:04:22;;;;;;;2.65;1.30;;;36.00;41.20;;;;;;5045448;28;20052;-73
2022/08/16 12:06:48;;;;;;;4.35;1.75;;;36.10;41.30;;;;;;5043657;28;20050;-73
2022/08/16 12:09:13;;;;;;;2.58;1.50;;;36.30;39.90;;;;;;5054745;28;20044;-73
2022/08/16 12:11:39;;;;;;;5.32;1.38;;;36.10;39.20;;;;;;5047308;28;20518;-73
2022/08/16 12:14:06;;;;;;;5.75;1.77;;;35.70;39.70;;;;;;5043604;28;20133;-73
2022/08/16 12:16:34;;;;;;;4.70;1.73;;;35.70;40.40;;;;;;5046576;28;20538;-73
2022/08/16 12:19:04;;;;;;;2.30;1.20;;;35.90;40.10;;;;;;5046075;28;20507;-73
2022/08/16 12:21:30;;;;;;;4.03;1.38;;;35.90;39.20;;;;;;5048904;28;20045;-72
2022/08/16 12:23:55;;;;;;;5.43;1.60;;;36.00;39.80;;;;;;5048273;28;20052;-73
2022/08/16 12:26:22;;;;;;;4.43;1.80;;;36.40;40.30;;;;;;5031500;28;20360;-72
2022/08/16 12:28:52;;;;;;;6.30;1.83;;;36.50;39.40;;;;;;5064128;28;20049;-73
2022/08/16 12:31:19;;;;;;;5.20;1.50;;;36.60;40.00;;;;;;5042304;28;20095;-73
2022/08/16 12:33:44;;;;;;;4.10;1.60;;;36.80;40.10;;;;;;5051536;28;20451;-73
2022/08/16 12:36:11;;;;;;;3.72;1.70;;;36.80;39.60;;;;;;5034593;28;20036;-73